Scroll down
FLIGHT INFORMATION
American Airlines

AAL550

At Arrival Gate

KMSP
 KPHX
DATE: 2022-02-08
GATE: E10
GATE DEPARTURE: 16:40
TAKEOFF: 16:53
DATE: 2022-02-08
GATE: B9
LANDING: 19:48
GATE ARRIVAL: 19:53
FLIGHT DATA
Crew: 
Speed: 
463 kts
Altitude: 
38,039 ft
Stage Length: 
1,107.8 nm
Block Time: 
3.1 hrs
Flight Time: 
2.9 hrs
Fuel Used: 
15,817 lb
Cleared Route: KMSP HUGIR MCONL ARREX SCHEP OTG ONL LBF PUB ALS RGINA PUMPS GUP KIRKM SLIDR TINIZ PAYSO EAGUL HOMRR VNNOM ESDEE BASSL DERVL JAGAL RW26
TRACK DATA
50,000 ft 1,000 kts
AIRCRAFT INFO AND CUMULATIVE STATS
Aircraft Type: 
B738BW
Registration: 
SELCAL: 
CPBH
MSN/LN: 
33491 / 4629
Operator: 
Total Flights: 
9
Total Block Time: 
18.8 hrs
Total Flight Time: 
15.8 hrs
Total Fuel Used: 
81,858 lb
DATALINK LOG | Newest first | Current as of: 2022-09-30 02:59:46
LABEL SEQUENCE CONTENT Dn/Up
QD535319:53 7.7▼ Dn
QC484819:48▼ Dn
2U0504KPHX 081851Z 02008KT 10SM FEW250 19/M09 A3019 RMK AO2 SLP213 T01941094▲ Up
2S0503KPHX▼ Dn
460100/OV GUP /TM 1900 /FL380 /TP B738 /TA -58 /WV 277/55 /TB LGT /RM HELLO GFO▼ Dn
5Z00598 FEB 22 19:00:02z / FLT DECK GOOD / ACF POS GOOD / GRND SERVICES GOOD / MAINT GOOD▼ Dn
UM2120010KPHX ATIS - PHX ATIS INFO J 1851Z. 01008KT 10SM FEW250 19/M09 A3019 (THREE ZERO ONE NINER). SIMUL APCHS IN USE. EXPECT VISUAL APCH RWY 8, VISUAL APCH RWY 7R. DEPARTING RWY 7L, RWY 7R. NOTAMS... MULT CRANES INVOF ARPT. ATTN ALL ACFT, 5G NOTAMS IN EFCT FOR PHX, FOR FTHR INFO CTC FSS FREQS. BIRD ACTIVITY INVOF ARPT. READBACK HOLD SHORT INSTRUCTIONS. ...ADVS YOU HAVE INFO J.▲ Up
DM790000 ATIS KPHX A▼ Dn
GA0010GATE B9▲ Up
GR5959KPHX 19:43 MAAS 01 YP/UM 05/06 WCHR/S/C 02/03/04 HI-VAL NO DIPL/VIP NO▼ Dn
2U5959KPHX 081851Z 02008KT 10SM FEW250 19/M09 A3019 RMK AO2 SLP213 T01941094▲ Up
2S5958KPHX▼ Dn
5R4646ALS 18:42z FL379 RGINA 18:55z PUMPS M0.80 12.5 -60 286/66 RW26 19:44z▼ Dn
QB535616:53▼ Dn
QA414416:40 23.6▼ Dn
UM2123245KMSP ATIS - MSP DEP INFO W 1553Z. 23004KT 10SM FEW140 BKN250 M05/M09 A2974 (TWO NINER SEVEN FOUR). DEPARTING RWY 30L, RWY 30R, RWY 17. NOTICE TO AIR MISSIONS. RWYS 4, 22 CLSD. ATTN ALL ACFT, 5G NOTAMS IN EFFECT FOR MSP, CTC FSS.. ALL ACFT CTC GND METERING ON ONE THREE THREE POINT FIVE SEVEN WHEN READY TO PUSHBACK OR TAXI. RWY 12R CONDITION CODES, 5 5 5 AT 1055Z, RWY 12L CONDITION CODES, 5 5 5 AT 1055Z, RWY 17 CONDITION CODES, 5 5 5 AT 1555Z. HAZD WX INFO FOR MSP AREA AVBL FM FSS. CTN, BIRDS NEAR MSP. READ BACK HS AND ALT. ALL ACFT TAXI WITH TRANSPONDER AND ALTITUDE ENCODING ON. ...ADVS YOU HAVE INFO W.▲ Up
DM793235 ATIS KMSP D▼ Dn
A33143CLEARED TO KPHX VIA SCHEP9 ONL LBF PUB ALS J102 GUP EAGUL6 . SQUAWK 7657.▲ Up
5U3142KPHX 081504Z 0815/0918 09008KT P6SM SKC FM082100 30005KT P6SM SKC FM090400 06005KT P6SM FEW250 FM090900 23005KT P6SM FEW250 FM091500 09005KT P6SM SKC▲ Up
5S3142KPHX▼ Dn
2U3141KMSP 081553Z 23004KT 10SM FEW140 BKN250 M05/M09 A2974 RMK AO2 SLP085 T10501094▲ Up
2S3141KMSP▼ Dn
Q03033[LINK ACK]▲ Up
Q03033[LINK TEST]▼ Dn


AIRCRAFT HISTORY
FLIGHT DATE FLIGHT NO. ORIGIN DESTINATION CLEARED ROUTE BLOCK TIME FLIGHT TIME FUEL USED PILOT
2022-02-08AAL1859KPHX KORD KPHX SPRKY FORPE LALUZ SJN ABQ FTI KENTO DRAWL GCK SLN AGENT KIDER IRK LOAMY KEOKK DRAMS RYELY BFORD BYLAW BENKY NEWRK AHSTN PETAH JORJO MONKZ TONIE HAZIL RW28C3.2 hrs2.8 hrs17,581 lbGeorge
2022-02-08AAL550KMSP KPHX KMSP HUGIR MCONL ARREX SCHEP OTG ONL LBF PUB ALS RGINA PUMPS GUP KIRKM SLIDR TINIZ PAYSO EAGUL HOMRR VNNOM ESDEE BASSL DERVL JAGAL RW263.1 hrs2.9 hrs15,817 lbGeorge
2022-02-08AAL1743KORD KMSP KORD PMPKN NEATO DLLAN RONIC KAMMA BEERI ROBBY KBULL ZZING HENDR CMAAC KKILR HUGGI KRISP AFTYN JONZY GREAK DOLEE ZESTY RW12R1.3 hrs1 hrs7,704 lbGeorge
2022-02-07AAL2431KLAX KORD KLAX DOCKR WEILR SHAEF PEVEE HOLTZ OSHNN CAHIL ZOOMM SEBBY PLAYY ARCUS YELAH WYZEE BEALE NOOTN BETHL FREDD DICEE DVC HBU GLD PWE IRK LOAMY KEOKK DRAMS RYELY BFORD BYLAW BENKY NEWRK AHSTN PETAH JORJO MONKZ TONIE JMBBO RW27C4.2 hrs3.8 hrs22,119 lbGeorge
2022-01-17AAL519KPHX KLAX KPHX FUTEP AZCRD USEYE MASVE OAKLI KEENS IZZZO MESSI KLAX1.1 hrs0.9 hrs6,245 lbChemtrails
2021-12-09AAL591KONT KPHX KONT SOEHL RAJEE CNERY BLH SCOLE SPINK SNRRA SWOON HYDRR GEELA AGGLA CHAVO LEMOE ZERLO RW25L1.3 hrs0.9 hrs6,632 lbMichael Collier
2020-12-16AAL939KRNO KONT KRNO DARBI EHF KONT1.6 hrs1 hrs-100 lbCharles Harris
2020-07-02AAL513KSLC KRNO KSLC BAM MYBAD KRNO1.9 hrs1.5 hrs9,830 lbCharles Harris
2020-06-16AAL616KBZN KSLC KBZN DBS KSLC1.2 hrs0.9 hrs7,689 lbCharles Harris